sensor_id;sensor_type;location;lat;lon;timestamp;pressure;altitude;pressure_sealevel;temperature;humidity
23363;BME280;11853;48.080;11.960;2023-01-09T00:00:56;93219.25;;;5.38;94.85
23363;BME280;11853;48.080;11.960;2023-01-09T00:03:24;93217.44;;;5.47;95.17
23363;BME280;11853;48.080;11.960;2023-01-09T00:05:53;93217.78;;;5.69;93.19
23363;BME280;11853;48.080;11.960;2023-01-09T00:08:19;93217.16;;;5.67;93.74
23363;BME280;11853;48.080;11.960;2023-01-09T00:10:45;93206.44;;;5.76;92.72
23363;BME280;11853;48.080;11.960;2023-01-09T00:13:13;93212.19;;;5.80;93.00
23363;BME280;11853;48.080;11.960;2023-01-09T00:15:45;93212.53;;;5.85;93.16
23363;BME280;11853;48.080;11.960;2023-01-09T00:18:11;93212.53;;;5.69;93.60
23363;BME280;11853;48.080;11.960;2023-01-09T00:20:39;93210.88;;;5.68;93.24
23363;BME280;11853;48.080;11.960;2023-01-09T00:23:12;93197.06;;;5.74;92.30
23363;BME280;11853;48.080;11.960;2023-01-09T00:25:41;93209.56;;;5.63;93.78
23363;BME280;11853;48.080;11.960;2023-01-09T00:28:11;93200.69;;;5.73;93.49
23363;BME280;11853;48.080;11.960;2023-01-09T00:30:37;93203.31;;;5.73;94.03
23363;BME280;11853;48.080;11.960;2023-01-09T00:33:06;93200.03;;;5.79;92.50
23363;BME280;11853;48.080;11.960;2023-01-09T00:35:37;93202.34;;;5.74;94.01
23363;BME280;11853;48.080;11.960;2023-01-09T00:38:14;93203.63;;;5.78;94.07
23363;BME280;11853;48.080;11.960;2023-01-09T00:40:49;93201.50;;;5.81;93.31
23363;BME280;11853;48.080;11.960;2023-01-09T00:43:16;93207.75;;;5.80;93.36
23363;BME280;11853;48.080;11.960;2023-01-09T00:45:51;93216.50;;;5.81;93.61
23363;BME280;11853;48.080;11.960;2023-01-09T00:48:36;93203.00;;;5.76;94.68
23363;BME280;11853;48.080;11.960;2023-01-09T00:51:11;93213.53;;;5.76;94.79
23363;BME280;11853;48.080;11.960;2023-01-09T00:53:43;93193.44;;;5.83;92.60
23363;BME280;11853;48.080;11.960;2023-01-09T00:56:13;93203.47;;;5.87;93.79
23363;BME280;11853;48.080;11.960;2023-01-09T00:58:52;93209.22;;;5.83;94.39
23363;BME280;11853;48.080;11.960;2023-01-09T01:01:28;93223.38;;;5.90;93.55
23363;BME280;11853;48.080;11.960;2023-01-09T01:04:05;93209.22;;;5.91;93.76
23363;BME280;11853;48.080;11.960;2023-01-09T01:06:49;93254.66;;;5.93;93.70
23363;BME280;11853;48.080;11.960;2023-01-09T01:09:36;93254.63;;;5.85;94.61
23363;BME280;11853;48.080;11.960;2023-01-09T01:12:16;93246.88;;;5.83;94.70
23363;BME280;11853;48.080;11.960;2023-01-09T01:14:53;93230.63;;;5.88;94.48
23363;BME280;11853;48.080;11.960;2023-01-09T01:17:33;93214.84;;;5.96;93.00
23363;BME280;11853;48.080;11.960;2023-01-09T01:20:07;93227.34;;;6.02;92.36
23363;BME280;11853;48.080;11.960;2023-01-09T01:22:42;93229.16;;;6.02;92.37
23363;BME280;11853;48.080;11.960;2023-01-09T01:25:15;93241.84;;;5.98;92.03
23363;BME280;11853;48.080;11.960;2023-01-09T01:27:49;93248.56;;;6.09;91.23
23363;BME280;11853;48.080;11.960;2023-01-09T01:30:18;93243.47;;;6.07;91.80
23363;BME280;11853;48.080;11.960;2023-01-09T01:32:46;93238.22;;;6.16;91.65
23363;BME280;11853;48.080;11.960;2023-01-09T01:35:23;93239.03;;;6.16;91.78
23363;BME280;11853;48.080;11.960;2023-01-09T01:37:54;93248.56;;;6.17;91.99
23363;BME280;11853;48.080;11.960;2023-01-09T01:40:27;93229.66;;;6.14;91.81
23363;BME280;11853;48.080;11.960;2023-01-09T01:42:56;93226.53;;;6.18;92.32
23363;BME280;11853;48.080;11.960;2023-01-09T01:45:25;93218.59;;;6.26;91.49
23363;BME280;11853;48.080;11.960;2023-01-09T01:50:32;93209.19;;;6.32;91.79
23363;BME280;11853;48.080;11.960;2023-01-09T01:53:08;93203.44;;;6.37;91.93
23363;BME280;11853;48.080;11.960;2023-01-09T01:55:40;93183.53;;;6.34;91.75
23363;BME280;11853;48.080;11.960;2023-01-09T01:58:10;93193.06;;;6.35;91.58
23363;BME280;11853;48.080;11.960;2023-01-09T02:00:41;93193.72;;;6.37;91.93
23363;BME280;11853;48.080;11.960;2023-01-09T02:03:07;93197.38;;;6.28;93.06
23363;BME280;11853;48.080;11.960;2023-01-09T02:05:48;93200.00;;;6.28;93.27
23363;BME280;11853;48.080;11.960;2023-01-09T02:08:17;93188.19;;;6.24;94.25
23363;BME280;11853;48.080;11.960;2023-01-09T02:10:44;93195.75;;;6.27;94.23
23363;BME280;11853;48.080;11.960;2023-01-09T02:13:11;93198.03;;;6.30;93.84
23363;BME280;11853;48.080;11.960;2023-01-09T02:27:29;93196.53;;;6.36;94.11
23363;BME280;11853;48.080;11.960;2023-01-09T02:31:12;93212.81;;;6.39;93.79
23363;BME280;11853;48.080;11.960;2023-01-09T02:36:29;93220.38;;;6.42;93.62
23363;BME280;11853;48.080;11.960;2023-01-09T02:39:21;93221.69;;;6.46;93.78
23363;BME280;11853;48.080;11.960;2023-01-09T02:41:56;93225.47;;;6.44;93.72
23363;BME280;11853;48.080;11.960;2023-01-09T02:44:29;93235.19;;;6.43;93.99
23363;BME280;11853;48.080;11.960;2023-01-09T02:47:05;93240.16;;;6.38;94.22
23363;BME280;11853;48.080;11.960;2023-01-09T02:49:34;93246.06;;;6.40;94.13
23363;BME280;11853;48.080;11.960;2023-01-09T02:55:14;93250.00;;;6.44;94.56
23363;BME280;11853;48.080;11.960;2023-01-09T03:01:11;93240.78;;;6.48;96.21
23363;BME280;11853;48.080;11.960;2023-01-09T03:09:57;93208.16;;;6.49;100.00
23363;BME280;11853;48.080;11.960;2023-01-09T03:12:25;93220.38;;;6.50;100.00
23363;BME280;11853;48.080;11.960;2023-01-09T03:14:58;93223.81;;;6.51;100.00
23363;BME280;11853;48.080;11.960;2023-01-09T03:17:37;93210.78;;;6.58;100.00
23363;BME280;11853;48.080;11.960;2023-01-09T03:20:09;93221.97;;;6.60;100.00
23363;BME280;11853;48.080;11.960;2023-01-09T03:22:39;93215.38;;;6.64;100.00
23363;BME280;11853;48.080;11.960;2023-01-09T03:25:07;93218.00;;;6.64;100.00
23363;BME280;11853;48.080;11.960;2023-01-09T03:27:36;93220.81;;;6.62;100.00
23363;BME280;11853;48.080;11.960;2023-01-09T03:30:02;93220.97;;;6.61;100.00
23363;BME280;11853;48.080;11.960;2023-01-09T03:32:28;93214.06;;;6.60;100.00
23363;BME280;11853;48.080;11.960;2023-01-09T03:34:54;93220.00;;;6.62;100.00
23363;BME280;11853;48.080;11.960;2023-01-09T03:37:20;93214.06;;;6.60;100.00
23363;BME280;11853;48.080;11.960;2023-01-09T03:39:48;93220.97;;;6.61;100.00
23363;BME280;11853;48.080;11.960;2023-01-09T03:42:14;93216.56;;;6.53;100.00
23363;BME280;11853;48.080;11.960;2023-01-09T03:44:46;93220.34;;;6.59;100.00
23363;BME280;11853;48.080;11.960;2023-01-09T03:47:11;93221.97;;;6.60;100.00
23363;BME280;11853;48.080;11.960;2023-01-09T03:49:37;93222.66;;;6.62;100.00
23363;BME280;11853;48.080;11.960;2023-01-09T03:52:06;93218.34;;;6.61;100.00
23363;BME280;11853;48.080;11.960;2023-01-09T03:54:32;93225.28;;;6.62;100.00
23363;BME280;11853;48.080;11.960;2023-01-09T03:56:58;93221.81;;;6.61;100.00
23363;BME280;11853;48.080;11.960;2023-01-09T03:59:24;93225.09;;;6.55;100.00
23363;BME280;11853;48.080;11.960;2023-01-09T04:01:52;93222.47;;;6.55;100.00
23363;BME280;11853;48.080;11.960;2023-01-09T04:04:18;93220.84;;;6.54;100.00
23363;BME280;11853;48.080;11.960;2023-01-09T04:06:44;93205.22;;;6.52;100.00
23363;BME280;11853;48.080;11.960;2023-01-09T04:09:10;93213.91;;;6.61;100.00
23363;BME280;11853;48.080;11.960;2023-01-09T04:11:36;93211.28;;;6.61;100.00
23363;BME280;11853;48.080;11.960;2023-01-09T04:14:02;93212.44;;;6.59;100.00
23363;BME280;11853;48.080;11.960;2023-01-09T04:16:27;93212.78;;;6.56;100.00
23363;BME280;11853;48.080;11.960;2023-01-09T04:18:53;93223.94;;;6.58;100.00
23363;BME280;11853;48.080;11.960;2023-01-09T04:21:20;93223.94;;;6.58;100.00
23363;BME280;11853;48.080;11.960;2023-01-09T04:23:45;93237.13;;;6.58;100.00
23363;BME280;11853;48.080;11.960;2023-01-09T04:26:11;93241.78;;;6.47;100.00
23363;BME280;11853;48.080;11.960;2023-01-09T04:28:40;93241.13;;;6.45;100.00
23363;BME280;11853;48.080;11.960;2023-01-09T04:31:06;93243.75;;;6.45;100.00
23363;BME280;11853;48.080;11.960;2023-01-09T04:33:31;93236.00;;;6.44;100.00
23363;BME280;11853;48.080;11.960;2023-01-09T04:36:00;93243.25;;;6.50;100.00
23363;BME280;11853;48.080;11.960;2023-01-09T04:38:26;93255.56;;;6.58;100.00
23363;BME280;11853;48.080;11.960;2023-01-09T04:40:52;93266.09;;;6.66;100.00
23363;BME280;11853;48.080;11.960;2023-01-09T04:43:23;93273.66;;;6.69;100.00
23363;BME280;11853;48.080;11.960;2023-01-09T04:45:52;93275.28;;;6.78;100.00
23363;BME280;11853;48.080;11.960;2023-01-09T04:48:18;93272.50;;;6.71;100.00
23363;BME280;11853;48.080;11.960;2023-01-09T04:50:49;93277.59;;;6.81;100.00
23363;BME280;11853;48.080;11.960;2023-01-09T04:53:17;93271.03;;;6.69;100.00
23363;BME280;11853;48.080;11.960;2023-01-09T04:55:44;93278.13;;;6.44;100.00
23363;BME280;11853;48.080;11.960;2023-01-09T04:58:15;93292.66;;;6.23;100.00
23363;BME280;11853;48.080;11.960;2023-01-09T05:00:44;93296.44;;;6.21;100.00
23363;BME280;11853;48.080;11.960;2023-01-09T05:03:12;93303.03;;;6.17;100.00
23363;BME280;11853;48.080;11.960;2023-01-09T05:05:43;93304.84;;;6.08;100.00
23363;BME280;11853;48.080;11.960;2023-01-09T05:08:11;93314.72;;;6.14;100.00
23363;BME280;11853;48.080;11.960;2023-01-09T05:13:57;93315.53;;;6.31;100.00
23363;BME280;11853;48.080;11.960;2023-01-09T05:16:34;93326.56;;;6.43;100.00
23363;BME280;11853;48.080;11.960;2023-01-09T05:19:09;93329.66;;;6.54;100.00
23363;BME280;11853;48.080;11.960;2023-01-09T05:21:35;93347.78;;;6.66;100.00
23363;BME280;11853;48.080;11.960;2023-01-09T05:24:01;93349.72;;;6.72;100.00
23363;BME280;11853;48.080;11.960;2023-01-09T05:29:05;93358.09;;;6.92;100.00
23363;BME280;11853;48.080;11.960;2023-01-09T05:31:31;93365.19;;;6.99;100.00
23363;BME280;11853;48.080;11.960;2023-01-09T05:34:11;93371.13;;;7.02;100.00
23363;BME280;11853;48.080;11.960;2023-01-09T05:36:40;93386.13;;;7.01;100.00
23363;BME280;11853;48.080;11.960;2023-01-09T05:39:12;93375.72;;;6.99;100.00
23363;BME280;11853;48.080;11.960;2023-01-09T05:41:44;93387.75;;;7.02;100.00
23363;BME280;11853;48.080;11.960;2023-01-09T05:44:19;93397.63;;;7.00;100.00
23363;BME280;11853;48.080;11.960;2023-01-09T05:46:50;93395.81;;;7.00;100.00
23363;BME280;11853;48.080;11.960;2023-01-09T05:49:23;93410.97;;;7.07;100.00
23363;BME280;11853;48.080;11.960;2023-01-09T05:51:49;93408.03;;;7.02;100.00
23363;BME280;11853;48.080;11.960;2023-01-09T05:54:20;93417.56;;;7.03;100.00
23363;BME280;11853;48.080;11.960;2023-01-09T05:56:49;93417.41;;;7.04;100.00
23363;BME280;11853;48.080;11.960;2023-01-09T05:59:16;93418.56;;;7.02;100.00
23363;BME280;11853;48.080;11.960;2023-01-09T06:01:47;93432.56;;;7.10;100.00
23363;BME280;11853;48.080;11.960;2023-01-09T06:04:18;93432.09;;;6.98;100.00
23363;BME280;11853;48.080;11.960;2023-01-09T06:06:50;93428.13;;;6.94;100.00
23363;BME280;11853;48.080;11.960;2023-01-09T06:09:23;93447.56;;;6.93;100.00
23363;BME280;11853;48.080;11.960;2023-01-09T06:11:56;93447.72;;;6.92;100.00
23363;BME280;11853;48.080;11.960;2023-01-09T06:14:33;93438.53;;;6.88;100.00
23363;BME280;11853;48.080;11.960;2023-01-09T06:17:04;93446.09;;;6.91;100.00
23363;BME280;11853;48.080;11.960;2023-01-09T06:19:36;93446.09;;;6.83;100.00
23363;BME280;11853;48.080;11.960;2023-01-09T06:22:10;93458.13;;;6.85;100.00
23363;BME280;11853;48.080;11.960;2023-01-09T06:24:50;93461.44;;;6.87;100.00
23363;BME280;11853;48.080;11.960;2023-01-09T06:27:21;93448.25;;;6.87;100.00
23363;BME280;11853;48.080;11.960;2023-01-09T06:29:54;93440.00;;;6.82;100.00
23363;BME280;11853;48.080;11.960;2023-01-09T06:32:20;93452.19;;;6.83;100.00
23363;BME280;11853;48.080;11.960;2023-01-09T06:34:49;93461.91;;;6.83;100.00
23363;BME280;11853;48.080;11.960;2023-01-09T06:37:14;93462.41;;;6.86;100.00
23363;BME280;11853;48.080;11.960;2023-01-09T06:39:43;93469.81;;;6.83;100.00
23363;BME280;11853;48.080;11.960;2023-01-09T06:42:11;93473.59;;;6.80;100.00
23363;BME280;11853;48.080;11.960;2023-01-09T06:44:37;93481.84;;;6.77;100.00
23363;BME280;11853;48.080;11.960;2023-01-09T06:47:05;93487.44;;;6.82;100.00
23363;BME280;11853;48.080;11.960;2023-01-09T06:49:34;93488.75;;;6.78;100.00
23363;BME280;11853;48.080;11.960;2023-01-09T06:52:00;93480.00;;;6.69;100.00
23363;BME280;11853;48.080;11.960;2023-01-09T06:54:29;93489.56;;;6.70;100.00
23363;BME280;11853;48.080;11.960;2023-01-09T06:57:00;93492.03;;;6.72;100.00
23363;BME280;11853;48.080;11.960;2023-01-09T06:59:25;93501.75;;;6.71;100.00
23363;BME280;11853;48.080;11.960;2023-01-09T07:01:51;93510.16;;;6.67;100.00
23363;BME280;11853;48.080;11.960;2023-01-09T07:04:17;93505.72;;;6.67;100.00
23363;BME280;11853;48.080;11.960;2023-01-09T07:06:49;93514.28;;;6.61;100.00
23363;BME280;11853;48.080;11.960;2023-01-09T07:09:14;93513.78;;;6.66;100.00
23363;BME280;11853;48.080;11.960;2023-01-09T07:11:53;93519.84;;;6.66;100.00
23363;BME280;11853;48.080;11.960;2023-01-09T07:14:28;93532.56;;;6.71;100.00
23363;BME280;11853;48.080;11.960;2023-01-09T07:17:04;93527.63;;;6.68;100.00
23363;BME280;11853;48.080;11.960;2023-01-09T07:19:34;93527.63;;;6.68;100.00
23363;BME280;11853;48.080;11.960;2023-01-09T07:22:12;93524.50;;;6.72;100.00
23363;BME280;11853;48.080;11.960;2023-01-09T07:24:37;93523.97;;;6.69;100.00
23363;BME280;11853;48.080;11.960;2023-01-09T07:27:03;93532.88;;;6.68;100.00
23363;BME280;11853;48.080;11.960;2023-01-09T07:29:44;93532.91;;;6.76;100.00
23363;BME280;11853;48.080;11.960;2023-01-09T07:32:24;93542.13;;;6.80;100.00
23363;BME280;11853;48.080;11.960;2023-01-09T07:34:49;93542.44;;;6.77;100.00
23363;BME280;11853;48.080;11.960;2023-01-09T07:37:16;93560.22;;;6.75;100.00
23363;BME280;11853;48.080;11.960;2023-01-09T07:39:42;93561.06;;;6.75;100.00
23363;BME280;11853;48.080;11.960;2023-01-09T07:42:23;93573.09;;;6.70;100.00
23363;BME280;11853;48.080;11.960;2023-01-09T07:44:52;93574.06;;;6.69;100.00
23363;BME280;11853;48.080;11.960;2023-01-09T07:47:18;93570.94;;;6.73;100.00
23363;BME280;11853;48.080;11.960;2023-01-09T07:49:47;93580.50;;;6.74;100.00
23363;BME280;11853;48.080;11.960;2023-01-09T07:52:13;93589.41;;;6.73;100.00
23363;BME280;11853;48.080;11.960;2023-01-09T07:54:50;93582.78;;;6.69;100.00
23363;BME280;11853;48.080;11.960;2023-01-09T07:57:15;93596.31;;;6.74;100.00
23363;BME280;11853;48.080;11.960;2023-01-09T07:59:46;93581.50;;;6.73;100.00
23363;BME280;11853;48.080;11.960;2023-01-09T08:02:13;93599.94;;;6.73;100.00
23363;BME280;11853;48.080;11.960;2023-01-09T08:04:39;93601.72;;;6.65;100.00
23363;BME280;11853;48.080;11.960;2023-01-09T08:07:05;93616.06;;;6.70;100.00
23363;BME280;11853;48.080;11.960;2023-01-09T08:09:31;93621.81;;;6.66;100.00
23363;BME280;11853;48.080;11.960;2023-01-09T08:11:57;93623.31;;;6.68;100.00
23363;BME280;11853;48.080;11.960;2023-01-09T08:14:26;93633.03;;;6.68;100.00
23363;BME280;11853;48.080;11.960;2023-01-09T08:17:05;93639.13;;;6.68;100.00
23363;BME280;11853;48.080;11.960;2023-01-09T08:19:46;93646.72;;;7.38;100.00
23363;BME280;11853;48.080;11.960;2023-01-09T08:22:12;93638.38;;;8.31;100.00
23363;BME280;11853;48.080;11.960;2023-01-09T08:24:47;93646.25;;;8.64;100.00
23363;BME280;11853;48.080;11.960;2023-01-09T08:27:27;93648.19;;;9.33;100.00
23363;BME280;11853;48.080;11.960;2023-01-09T08:29:55;93639.28;;;9.80;100.00
23363;BME280;11853;48.080;11.960;2023-01-09T08:32:21;93644.78;;;9.24;89.89
23363;BME280;11853;48.080;11.960;2023-01-09T08:34:49;93660.41;;;8.71;92.11
23363;BME280;11853;48.080;11.960;2023-01-09T08:37:20;93660.31;;;8.32;91.72
23363;BME280;11853;48.080;11.960;2023-01-09T08:39:51;93666.28;;;8.26;97.21
23363;BME280;11853;48.080;11.960;2023-01-09T08:42:18;93672.09;;;7.97;92.04
23363;BME280;11853;48.080;11.960;2023-01-09T08:45:05;93664.50;;;7.69;93.85
23363;BME280;11853;48.080;11.960;2023-01-09T08:47:52;93679.69;;;7.51;92.37
23363;BME280;11853;48.080;11.960;2023-01-09T08:50:18;93683.47;;;7.40;94.09
23363;BME280;11853;48.080;11.960;2023-01-09T08:52:46;93678.03;;;7.33;93.36
23363;BME280;11853;48.080;11.960;2023-01-09T08:55:15;93687.88;;;7.23;93.90
23363;BME280;11853;48.080;11.960;2023-01-09T08:57:59;93682.56;;;7.15;94.20
23363;BME280;11853;48.080;11.960;2023-01-09T09:00:25;93693.97;;;7.15;94.00
23363;BME280;11853;48.080;11.960;2023-01-09T09:02:58;93690.31;;;7.08;93.36
23363;BME280;11853;48.080;11.960;2023-01-09T09:05:28;93703.97;;;6.95;93.93
23363;BME280;11853;48.080;11.960;2023-01-09T09:08:00;93697.53;;;6.98;92.59
23363;BME280;11853;48.080;11.960;2023-01-09T09:10:32;93699.66;;;6.94;92.74
23363;BME280;11853;48.080;11.960;2023-01-09T09:13:01;93707.59;;;7.03;92.91
23363;BME280;11853;48.080;11.960;2023-01-09T09:15:32;93707.47;;;7.04;92.12
23363;BME280;11853;48.080;11.960;2023-01-09T09:18:06;93718.19;;;7.11;92.44
23363;BME280;11853;48.080;11.960;2023-01-09T09:20:38;93721.28;;;7.06;89.81
23363;BME280;11853;48.080;11.960;2023-01-09T09:23:06;93729.06;;;7.08;89.62
23363;BME280;11853;48.080;11.960;2023-01-09T09:25:32;93736.31;;;7.14;88.90
23363;BME280;11853;48.080;11.960;2023-01-09T09:28:10;93723.94;;;7.14;88.49
23363;BME280;11853;48.080;11.960;2023-01-09T09:30:39;93733.34;;;7.17;89.12
23363;BME280;11853;48.080;11.960;2023-01-09T09:33:16;93734.19;;;7.17;86.82
23363;BME280;11853;48.080;11.960;2023-01-09T09:35:50;93726.41;;;7.08;86.54
23363;BME280;11853;48.080;11.960;2023-01-09T09:38:22;93725.41;;;7.09;87.43
23363;BME280;11853;48.080;11.960;2023-01-09T09:55:47;93731.56;;;6.83;85.33
23363;BME280;11853;48.080;11.960;2023-01-09T09:59:43;93735.56;;;6.87;83.66
23363;BME280;11853;48.080;11.960;2023-01-09T10:04:42;93720.22;;;6.83;84.78
23363;BME280;11853;48.080;11.960;2023-01-09T10:07:44;93729.94;;;6.82;84.65
23363;BME280;11853;48.080;11.960;2023-01-09T10:12:57;93728.78;;;6.85;84.62
23363;BME280;11853;48.080;11.960;2023-01-09T10:15:58;93728.31;;;6.89;84.79
23363;BME280;11853;48.080;11.960;2023-01-09T10:21:23;93720.06;;;6.92;85.38
23363;BME280;11853;48.080;11.960;2023-01-09T10:26:50;93710.94;;;7.13;84.43
23363;BME280;11853;48.080;11.960;2023-01-09T10:32:48;93707.38;;;7.47;83.37
23363;BME280;11853;48.080;11.960;2023-01-09T10:38:16;93717.94;;;7.55;81.59
23363;BME280;11853;48.080;11.960;2023-01-09T10:40:56;93719.28;;;7.51;80.54
23363;BME280;11853;48.080;11.960;2023-01-09T10:46:42;93718.09;;;7.45;81.80
23363;BME280;11853;48.080;11.960;2023-01-09T10:49:14;93721.56;;;7.45;81.85
23363;BME280;11853;48.080;11.960;2023-01-09T10:51:48;93718.78;;;7.47;82.09
23363;BME280;11853;48.080;11.960;2023-01-09T10:54:30;93714.47;;;7.46;81.75
23363;BME280;11853;48.080;11.960;2023-01-09T10:57:12;93709.06;;;7.56;82.67
23363;BME280;11853;48.080;11.960;2023-01-09T10:59:41;93711.69;;;7.48;82.20
23363;BME280;11853;48.080;11.960;2023-01-09T11:04:57;93701.09;;;7.39;81.00
23363;BME280;11853;48.080;11.960;2023-01-09T11:07:36;93703.56;;;7.41;81.31
23363;BME280;11853;48.080;11.960;2023-01-09T11:10:10;93713.63;;;7.37;81.99
23363;BME280;11853;48.080;11.960;2023-01-09T11:12:37;93711.34;;;7.42;82.66
23363;BME280;11853;48.080;11.960;2023-01-09T11:15:22;93719.25;;;7.42;81.65
23363;BME280;11853;48.080;11.960;2023-01-09T11:17:57;93714.81;;;7.51;80.70
23363;BME280;11853;48.080;11.960;2023-01-09T11:20:34;93715.47;;;7.45;81.26
23363;BME280;11853;48.080;11.960;2023-01-09T11:23:26;93716.63;;;7.42;81.60
23363;BME280;11853;48.080;11.960;2023-01-09T11:25:56;93719.94;;;7.44;82.29
23363;BME280;11853;48.080;11.960;2023-01-09T11:28:22;93713.97;;;7.42;82.46
23363;BME280;11853;48.080;11.960;2023-01-09T11:30:59;93707.69;;;7.43;81.27
23363;BME280;11853;48.080;11.960;2023-01-09T11:34:11;93714.78;;;7.43;81.32
23363;BME280;11853;48.080;11.960;2023-01-09T11:36:33;93711.47;;;7.41;82.10
23363;BME280;11853;48.080;11.960;2023-01-09T11:39:05;93713.66;;;7.45;82.30
23363;BME280;11853;48.080;11.960;2023-01-09T11:41:46;93718.44;;;7.42;80.95
23363;BME280;11853;48.080;11.960;2023-01-09T11:44:20;93720.91;;;7.43;80.62
23363;BME280;11853;48.080;11.960;2023-01-09T11:46:48;93718.94;;;7.45;81.09
23363;BME280;11853;48.080;11.960;2023-01-09T11:49:28;93724.06;;;7.47;81.24
23363;BME280;11853;48.080;11.960;2023-01-09T11:52:15;93714.31;;;7.48;80.21
23363;BME280;11853;48.080;11.960;2023-01-09T11:55:01;93724.19;;;7.45;80.69
23363;BME280;11853;48.080;11.960;2023-01-09T11:57:34;93713.31;;;7.49;80.93
23363;BME280;11853;48.080;11.960;2023-01-09T12:00:32;93712.97;;;7.43;78.73
23363;BME280;11853;48.080;11.960;2023-01-09T12:09:11;93713.31;;;7.40;78.83
23363;BME280;11853;48.080;11.960;2023-01-09T12:11:58;93718.94;;;7.45;78.09
23363;BME280;11853;48.080;11.960;2023-01-09T12:20:28;93705.75;;;7.54;78.71
23363;BME280;11853;48.080;11.960;2023-01-09T12:34:49;93701.47;;;7.53;77.65
23363;BME280;11853;48.080;11.960;2023-01-09T12:41:04;93698.97;;;7.51;77.09
23363;BME280;11853;48.080;11.960;2023-01-09T12:47:07;93695.66;;;7.49;77.84
23363;BME280;11853;48.080;11.960;2023-01-09T12:50:08;93695.88;;;7.56;77.34
23363;BME280;11853;48.080;11.960;2023-01-09T12:53:23;93697.00;;;7.53;76.36
23363;BME280;11853;48.080;11.960;2023-01-09T12:56:06;93700.97;;;7.57;77.17
23363;BME280;11853;48.080;11.960;2023-01-09T13:01:26;93692.38;;;7.55;76.90
23363;BME280;11853;48.080;11.960;2023-01-09T13:04:16;93686.63;;;7.60;76.79
23363;BME280;11853;48.080;11.960;2023-01-09T13:06:58;93695.38;;;7.68;77.05
23363;BME280;11853;48.080;11.960;2023-01-09T13:09:55;93692.72;;;7.68;75.58
23363;BME280;11853;48.080;11.960;2023-01-09T13:12:37;93688.94;;;7.71;75.41
23363;BME280;11853;48.080;11.960;2023-01-09T13:15:29;93685.63;;;7.69;76.10
23363;BME280;11853;48.080;11.960;2023-01-09T13:21:13;93697.19;;;7.76;83.59
23363;BME280;11853;48.080;11.960;2023-01-09T13:24:00;93691.91;;;7.76;77.22
23363;BME280;11853;48.080;11.960;2023-01-09T13:26:57;93686.31;;;7.71;74.88
23363;BME280;11853;48.080;11.960;2023-01-09T13:29:28;93685.31;;;7.72;76.18
23363;BME280;11853;48.080;11.960;2023-01-09T13:32:08;93687.94;;;7.64;77.01
23363;BME280;11853;48.080;11.960;2023-01-09T13:34:45;93681.69;;;7.65;77.48
23363;BME280;11853;48.080;11.960;2023-01-09T13:37:21;93687.94;;;7.64;76.20
23363;BME280;11853;48.080;11.960;2023-01-09T13:43:12;93677.69;;;7.61;77.08
23363;BME280;11853;48.080;11.960;2023-01-09T13:45:49;93679.88;;;7.65;75.79
23363;BME280;11853;48.080;11.960;2023-01-09T13:48:37;93678.03;;;7.58;76.10
23363;BME280;11853;48.080;11.960;2023-01-09T13:59:52;93682.16;;;7.52;76.49
23363;BME280;11853;48.080;11.960;2023-01-09T14:02:55;93692.56;;;7.54;77.02
23363;BME280;11853;48.080;11.960;2023-01-09T14:08:22;93698.19;;;7.59;75.12
23363;BME280;11853;48.080;11.960;2023-01-09T14:11:15;93698.97;;;7.51;74.96
23363;BME280;11853;48.080;11.960;2023-01-09T14:13:44;93694.50;;;7.43;75.03
23363;BME280;11853;48.080;11.960;2023-01-09T14:18:51;93709.38;;;7.44;75.34
23363;BME280;11853;48.080;11.960;2023-01-09T14:21:20;93714.97;;;7.41;74.54
23363;BME280;11853;48.080;11.960;2023-01-09T14:23:58;93707.38;;;7.47;74.31
23363;BME280;11853;48.080;11.960;2023-01-09T14:26:49;93713.66;;;7.45;75.00
23363;BME280;11853;48.080;11.960;2023-01-09T14:35:29;93720.22;;;7.33;76.35
23363;BME280;11853;48.080;11.960;2023-01-09T14:47:04;93710.16;;;7.37;76.22
23363;BME280;11853;48.080;11.960;2023-01-09T14:52:56;93718.75;;;7.39;76.47
23363;BME280;11853;48.080;11.960;2023-01-09T14:55:48;93720.88;;;7.35;76.24
23363;BME280;11853;48.080;11.960;2023-01-09T14:58:29;93718.91;;;7.37;76.67
23363;BME280;11853;48.080;11.960;2023-01-09T15:01:12;93715.09;;;7.32;76.43
23363;BME280;11853;48.080;11.960;2023-01-09T15:03:43;93727.16;;;7.34;76.01
23363;BME280;11853;48.080;11.960;2023-01-09T15:06:29;93728.28;;;7.32;76.28
23363;BME280;11853;48.080;11.960;2023-01-09T15:09:05;93724.84;;;7.31;75.80
23363;BME280;11853;48.080;11.960;2023-01-09T15:11:33;93729.44;;;7.29;76.50
23363;BME280;11853;48.080;11.960;2023-01-09T15:14:03;93731.41;;;7.35;79.74
23363;BME280;11853;48.080;11.960;2023-01-09T15:16:30;93732.78;;;7.39;78.75
23363;BME280;11853;48.080;11.960;2023-01-09T15:19:02;93731.13;;;7.38;77.95
23363;BME280;11853;48.080;11.960;2023-01-09T15:21:29;93738.38;;;7.36;76.75
23363;BME280;11853;48.080;11.960;2023-01-09T15:24:19;93746.59;;;7.33;76.27
23363;BME280;11853;48.080;11.960;2023-01-09T15:26:52;93743.16;;;7.33;76.66
23363;BME280;11853;48.080;11.960;2023-01-09T15:29:18;93748.44;;;7.33;76.11
23363;BME280;11853;48.080;11.960;2023-01-09T15:31:48;93739.00;;;7.30;76.55
23363;BME280;11853;48.080;11.960;2023-01-09T15:34:20;93740.84;;;7.30;76.72
23363;BME280;11853;48.080;11.960;2023-01-09T15:36:46;93742.63;;;7.29;76.86
23363;BME280;11853;48.080;11.960;2023-01-09T15:39:39;93742.63;;;7.29;76.96
23363;BME280;11853;48.080;11.960;2023-01-09T15:42:20;93751.38;;;7.30;76.86
23363;BME280;11853;48.080;11.960;2023-01-09T15:45:27;93748.53;;;7.23;76.79
23363;BME280;11853;48.080;11.960;2023-01-09T15:48:24;93748.41;;;7.25;77.19
23363;BME280;11853;48.080;11.960;2023-01-09T15:51:13;93749.84;;;7.19;76.66
23363;BME280;11853;48.080;11.960;2023-01-09T15:53:45;93753.00;;;7.22;76.86
23363;BME280;11853;48.080;11.960;2023-01-09T15:56:15;93753.13;;;7.21;76.57